createdAt,value
2023-09-27T00:00:07.333Z,26.88
2023-09-27T00:02:34.143Z,27.27
2023-09-27T00:05:01.995Z,28.05
2023-09-27T00:07:29.507Z,33.03
2023-09-27T00:09:59.463Z,25.73
2023-09-27T00:12:26.282Z,34.33
2023-09-27T00:14:53.009Z,29.15
2023-09-27T00:17:19.735Z,26.20
2023-09-27T00:19:46.529Z,27.20
2023-09-27T00:22:13.252Z,28.88
2023-09-27T00:24:40.637Z,27.17
2023-09-27T00:27:08.211Z,31.83
2023-09-27T00:29:35.907Z,26.48
2023-09-27T00:32:02.755Z,28.17
2023-09-27T00:34:29.632Z,23.48
2023-09-27T00:36:56.628Z,27.50
2023-09-27T00:39:23.299Z,31.05
2023-09-27T00:41:49.969Z,25.85
2023-09-27T00:44:18.365Z,29.20
2023-09-27T00:46:45.318Z,30.30
2023-09-27T00:49:12.487Z,25.65
2023-09-27T00:51:39.189Z,24.63
2023-09-27T00:54:08.900Z,29.02
2023-09-27T00:56:35.881Z,29.58
2023-09-27T00:59:03.527Z,28.85
2023-09-27T01:01:30.773Z,26.52
2023-09-27T01:03:59.011Z,25.50
2023-09-27T01:06:26.680Z,32.28
2023-09-27T01:08:53.647Z,29.45
2023-09-27T01:11:20.693Z,33.33
2023-09-27T01:13:47.393Z,34.35
2023-09-27T01:16:14.082Z,29.55
2023-09-27T01:18:41.456Z,31.38
2023-09-27T01:21:08.165Z,27.70
2023-09-27T01:23:37.705Z,31.65
2023-09-27T01:26:05.024Z,27.92
2023-09-27T01:28:32.918Z,30.80
2023-09-27T01:30:59.675Z,34.13
2023-09-27T01:33:27.078Z,32.25
2023-09-27T01:35:55.373Z,32.25
2023-09-27T01:38:22.405Z,31.55
2023-09-27T01:40:49.182Z,35.20
2023-09-27T01:43:15.914Z,31.38
2023-09-27T01:45:43.970Z,34.13
2023-09-27T01:48:10.976Z,30.67
2023-09-27T01:50:37.768Z,37.28
2023-09-27T01:53:04.995Z,34.45
2023-09-27T01:55:32.645Z,32.30
2023-09-27T01:58:01.654Z,28.45
2023-09-27T02:00:28.384Z,27.60
2023-09-27T02:02:57.375Z,27.67
2023-09-27T02:05:25.101Z,26.48
2023-09-27T02:07:52.032Z,26.38
2023-09-27T02:10:19.188Z,27.13
2023-09-27T02:12:46.058Z,29.17
2023-09-27T02:15:14.718Z,27.73
2023-09-27T02:17:43.770Z,25.35
2023-09-27T02:20:12.647Z,25.15
2023-09-27T02:22:42.908Z,26.98
2023-09-27T02:25:13.989Z,23.63
2023-09-27T02:27:41.451Z,25.23
2023-09-27T02:30:12.735Z,24.40
2023-09-27T02:32:42.091Z,29.00
2023-09-27T02:35:12.870Z,27.23
2023-09-27T02:37:40.619Z,28.75
2023-09-27T02:40:14.715Z,27.15
2023-09-27T02:42:42.683Z,27.58
2023-09-27T02:45:10.461Z,24.15
2023-09-27T02:47:38.193Z,28.15
2023-09-27T02:50:06.363Z,21.83
2023-09-27T02:52:33.671Z,29.02
2023-09-27T02:55:00.649Z,27.25
2023-09-27T02:57:27.413Z,26.73
2023-09-27T02:59:54.370Z,30.27
2023-09-27T03:02:21.631Z,24.35
2023-09-27T03:04:48.864Z,27.35
2023-09-27T03:07:16.901Z,28.45
2023-09-27T03:09:49.982Z,27.17
2023-09-27T03:12:16.685Z,23.10
2023-09-27T03:14:44.875Z,26.58
2023-09-27T03:17:11.777Z,26.08
2023-09-27T03:19:38.477Z,27.90
2023-09-27T03:22:07.944Z,22.80
2023-09-27T03:24:35.517Z,25.77
2023-09-27T03:27:04.281Z,28.13
2023-09-27T03:29:39.283Z,23.50
2023-09-27T03:34:33.161Z,20.05
2023-09-27T03:36:59.883Z,26.55
2023-09-27T03:39:30.102Z,25.92
2023-09-27T03:41:57.805Z,30.42
2023-09-27T03:44:25.403Z,26.88
2023-09-27T03:46:52.263Z,27.25
2023-09-27T03:49:19.099Z,23.50
2023-09-27T03:51:45.959Z,25.95
2023-09-27T03:54:12.788Z,26.92
2023-09-27T03:56:39.482Z,22.88
2023-09-27T03:59:06.347Z,24.77
2023-09-27T04:01:33.199Z,23.67
2023-09-27T04:04:03.405Z,29.50
2023-09-27T04:06:30.122Z,25.77
2023-09-27T04:08:56.916Z,25.10
2023-09-27T04:11:23.579Z,24.00
2023-09-27T04:13:50.835Z,23.23
2023-09-27T04:16:17.599Z,21.80
2023-09-27T04:18:44.369Z,21.08
2023-09-27T04:21:12.312Z,20.95
2023-09-27T04:23:39.745Z,21.98
2023-09-27T04:26:06.942Z,20.75
2023-09-27T04:28:34.311Z,22.58
2023-09-27T04:31:01.831Z,29.13
2023-09-27T04:33:28.631Z,21.05
2023-09-27T04:35:55.387Z,22.40
2023-09-27T04:38:22.594Z,21.02
2023-09-27T04:40:52.820Z,18.75
2023-09-27T04:43:19.666Z,22.70
2023-09-27T04:45:46.665Z,19.45
2023-09-27T04:48:13.791Z,21.92
2023-09-27T04:50:41.338Z,19.77
2023-09-27T04:53:08.129Z,21.00
2023-09-27T04:55:35.304Z,19.17
2023-09-27T04:58:02.029Z,22.08
2023-09-27T05:00:28.741Z,20.83
2023-09-27T05:02:55.761Z,20.65
2023-09-27T05:05:22.469Z,20.83
2023-09-27T05:07:49.528Z,26.05
2023-09-27T05:10:16.826Z,18.55
2023-09-27T05:12:43.592Z,20.27
2023-09-27T05:15:10.897Z,18.33
2023-09-27T05:17:38.232Z,19.10
2023-09-27T05:20:13.474Z,20.92
2023-09-27T05:22:42.016Z,18.67
2023-09-27T05:25:09.594Z,18.50
2023-09-27T05:27:36.395Z,23.35
2023-09-27T05:30:04.954Z,18.73
2023-09-27T05:32:31.802Z,22.17
2023-09-27T05:34:58.825Z,24.08
2023-09-27T05:37:25.630Z,21.38
2023-09-27T05:39:52.732Z,19.77
2023-09-27T05:42:19.350Z,21.27
2023-09-27T05:44:46.848Z,19.17
2023-09-27T05:47:13.590Z,24.92
2023-09-27T05:49:40.922Z,19.70
2023-09-27T05:52:13.321Z,20.52
2023-09-27T05:54:40.521Z,24.27
2023-09-27T05:57:07.899Z,17.10
2023-09-27T05:59:35.082Z,18.05
2023-09-27T06:02:02.089Z,24.90
2023-09-27T06:04:28.768Z,27.45
2023-09-27T06:06:55.452Z,20.30
2023-09-27T06:09:34.400Z,22.60
2023-09-27T06:12:13.405Z,23.95
2023-09-27T06:14:40.290Z,22.13
2023-09-27T06:17:07.506Z,22.58
2023-09-27T06:19:35.021Z,23.88
2023-09-27T06:22:15.251Z,22.30
2023-09-27T06:24:42.259Z,24.25
2023-09-27T06:27:09.347Z,21.17
2023-09-27T06:29:36.066Z,19.98
2023-09-27T06:32:03.307Z,23.35
2023-09-27T06:34:30.269Z,21.10
2023-09-27T06:36:57.863Z,19.42
2023-09-27T06:39:27.646Z,21.83
2023-09-27T06:41:54.484Z,25.42
2023-09-27T06:44:21.279Z,19.58
2023-09-27T06:46:49.536Z,21.95
2023-09-27T06:49:18.163Z,20.40
2023-09-27T06:51:45.439Z,20.40
2023-09-27T06:54:12.357Z,21.42
2023-09-27T06:56:39.269Z,26.60
2023-09-27T06:59:07.018Z,22.83
2023-09-27T07:01:33.851Z,21.45
2023-09-27T07:04:04.824Z,21.17
2023-09-27T07:06:31.767Z,20.35
2023-09-27T07:08:59.295Z,21.95
2023-09-27T07:11:26.580Z,18.48
2023-09-27T07:13:53.621Z,22.40
2023-09-27T07:16:30.984Z,19.83
2023-09-27T07:19:01.190Z,18.58
2023-09-27T07:21:29.475Z,19.08
2023-09-27T07:23:59.523Z,21.33
2023-09-27T07:26:26.313Z,24.35
2023-09-27T07:28:53.391Z,19.20
2023-09-27T07:31:41.496Z,19.38
2023-09-27T07:34:08.282Z,17.88
2023-09-27T07:36:35.187Z,18.35
2023-09-27T07:39:07.237Z,19.77
2023-09-27T07:41:36.705Z,21.98
2023-09-27T07:44:06.208Z,20.15
2023-09-27T07:46:33.014Z,21.48
2023-09-27T07:49:01.733Z,19.85
2023-09-27T07:51:28.840Z,25.35
2023-09-27T07:54:25.686Z,20.20
2023-09-27T07:57:12.825Z,20.63
2023-09-27T07:59:39.863Z,20.30
2023-09-27T08:02:06.966Z,23.48
2023-09-27T08:04:33.774Z,15.38
2023-09-27T08:07:00.542Z,20.52
2023-09-27T08:09:40.599Z,18.27
2023-09-27T08:12:08.634Z,18.70
2023-09-27T08:14:38.441Z,20.73
2023-09-27T08:17:06.221Z,17.58
2023-09-27T08:19:33.922Z,18.17
2023-09-27T08:22:00.768Z,18.35
2023-09-27T08:24:27.548Z,16.65
2023-09-27T08:26:54.376Z,16.60
2023-09-27T08:29:22.838Z,16.23
2023-09-27T08:31:49.667Z,20.48
2023-09-27T08:34:17.584Z,16.23
2023-09-27T08:36:50.153Z,17.45
2023-09-27T08:39:19.435Z,16.27
2023-09-27T08:41:46.191Z,18.73
2023-09-27T08:44:13.249Z,17.55
2023-09-27T08:46:40.988Z,19.02
2023-09-27T08:49:10.083Z,18.05
2023-09-27T08:51:40.983Z,15.13
2023-09-27T08:54:10.906Z,13.70
2023-09-27T08:56:37.748Z,15.73
2023-09-27T08:59:06.232Z,13.13
2023-09-27T09:01:36.186Z,13.88
2023-09-27T09:04:03.942Z,15.32
2023-09-27T09:06:30.928Z,14.73
2023-09-27T09:08:57.977Z,15.73
2023-09-27T09:11:24.999Z,15.05
2023-09-27T09:14:06.432Z,17.58
2023-09-27T09:16:48.880Z,17.05
2023-09-27T09:19:41.729Z,16.42
2023-09-27T09:22:12.528Z,13.40
2023-09-27T09:24:44.983Z,13.55
2023-09-27T09:27:17.659Z,19.92
2023-09-27T09:29:49.846Z,15.30
2023-09-27T09:32:29.507Z,19.45
2023-09-27T09:34:56.780Z,19.15
2023-09-27T09:37:25.592Z,17.27
2023-09-27T09:39:54.138Z,16.20
2023-09-27T09:42:33.046Z,16.80
2023-09-27T09:45:13.058Z,13.25
2023-09-27T09:47:41.599Z,17.98
2023-09-27T09:50:10.121Z,13.30
2023-09-27T09:52:40.478Z,20.38
2023-09-27T09:55:22.733Z,17.67
2023-09-27T09:58:55.551Z,15.13
2023-09-27T10:01:23.647Z,22.47
2023-09-27T10:03:53.463Z,15.00
2023-09-27T10:06:32.538Z,16.58
2023-09-27T10:09:15.724Z,14.10
2023-09-27T10:11:44.424Z,16.02
2023-09-27T10:14:11.906Z,14.30
2023-09-27T10:16:39.193Z,17.42
2023-09-27T10:19:06.928Z,20.27
2023-09-27T10:21:34.003Z,19.35
2023-09-27T10:24:02.654Z,14.98
2023-09-27T10:26:30.207Z,16.25
2023-09-27T10:29:07.877Z,14.27
2023-09-27T10:31:39.475Z,16.77
2023-09-27T10:34:29.127Z,13.30
2023-09-27T10:37:10.479Z,10.27
2023-09-27T10:43:35.396Z,16.98
2023-09-27T10:46:05.785Z,11.60
2023-09-27T10:48:32.704Z,13.45
2023-09-27T10:50:59.828Z,15.05
2023-09-27T10:53:28.031Z,11.90
2023-09-27T10:55:54.921Z,13.95
2023-09-27T10:58:21.675Z,14.70
2023-09-27T11:00:58.893Z,10.73
2023-09-27T11:03:25.905Z,11.90
2023-09-27T11:05:52.932Z,13.20
2023-09-27T11:08:24.326Z,11.13
2023-09-27T11:10:54.539Z,12.38
2023-09-27T11:13:22.698Z,12.73
2023-09-27T11:15:49.676Z,16.92
2023-09-27T11:18:16.762Z,10.85
2023-09-27T11:20:44.056Z,16.33
2023-09-27T11:23:10.921Z,12.35
2023-09-27T11:25:39.250Z,10.80
2023-09-27T11:28:06.291Z,15.18
2023-09-27T11:30:35.788Z,11.80
2023-09-27T11:33:11.965Z,12.25
2023-09-27T11:35:47.628Z,13.18
2023-09-27T11:38:21.943Z,19.42
2023-09-27T11:40:50.047Z,13.65
2023-09-27T11:43:17.076Z,11.25
2023-09-27T11:45:45.024Z,10.27
2023-09-27T11:48:12.243Z,12.05
2023-09-27T11:50:41.910Z,13.05
2023-09-27T11:53:12.230Z,14.48
2023-09-27T11:55:39.262Z,11.23
2023-09-27T11:58:05.978Z,11.43
2023-09-27T12:00:33.417Z,13.63
2023-09-27T12:03:00.355Z,11.10
2023-09-27T12:05:28.347Z,12.70
2023-09-27T12:07:56.499Z,10.40
2023-09-27T12:10:23.684Z,10.85
2023-09-27T12:12:50.772Z,12.32
2023-09-27T12:15:17.710Z,13.95
2023-09-27T12:17:44.891Z,11.20
2023-09-27T12:20:26.657Z,13.40
2023-09-27T12:22:58.534Z,12.38
2023-09-27T12:25:28.620Z,9.98
2023-09-27T12:27:55.289Z,15.75
2023-09-27T12:30:22.106Z,11.27
2023-09-27T12:32:49.139Z,8.90
2023-09-27T12:35:16.061Z,12.43
2023-09-27T12:37:42.812Z,12.57
2023-09-27T12:40:10.245Z,10.68
2023-09-27T12:42:37.032Z,16.42
2023-09-27T12:45:06.719Z,11.15
2023-09-27T12:47:33.774Z,9.70
2023-09-27T12:50:04.626Z,11.02
2023-09-27T12:52:32.437Z,8.00
2023-09-27T12:55:02.365Z,11.38
2023-09-27T12:57:29.158Z,12.25
2023-09-27T12:59:57.149Z,10.20
2023-09-27T13:02:23.963Z,8.82
2023-09-27T13:04:50.691Z,15.73
2023-09-27T13:07:18.366Z,13.65
2023-09-27T13:09:45.837Z,11.43
2023-09-27T13:12:12.616Z,8.48
2023-09-27T13:14:39.344Z,8.50
2023-09-27T13:17:06.241Z,11.38
2023-09-27T13:19:33.095Z,9.23
2023-09-27T13:21:59.742Z,12.70
2023-09-27T13:24:26.552Z,11.98
2023-09-27T13:26:56.354Z,12.52
2023-09-27T13:29:23.315Z,8.82
2023-09-27T13:31:51.496Z,13.10
2023-09-27T13:34:18.521Z,12.07
2023-09-27T13:36:45.884Z,8.85
2023-09-27T13:39:20.275Z,6.85
2023-09-27T13:41:47.803Z,10.27
2023-09-27T13:44:15.002Z,7.65
2023-09-27T13:46:42.234Z,10.27
2023-09-27T13:49:09.918Z,9.10
2023-09-27T13:51:37.870Z,10.35
2023-09-27T13:54:08.799Z,13.93
2023-09-27T13:56:36.724Z,8.93
2023-09-27T13:59:05.080Z,7.75
2023-09-27T14:01:32.637Z,8.57
2023-09-27T14:04:00.393Z,8.70
2023-09-27T14:06:27.456Z,9.05
2023-09-27T14:08:54.579Z,8.55
2023-09-27T14:11:22.120Z,11.77
2023-09-27T14:13:49.156Z,8.27
2023-09-27T14:16:19.918Z,9.55
2023-09-27T14:18:46.844Z,11.23
2023-09-27T14:21:14.892Z,9.32
2023-09-27T14:23:44.163Z,8.85
2023-09-27T14:26:12.223Z,17.15
2023-09-27T14:28:39.153Z,7.93
2023-09-27T14:31:06.650Z,8.68
2023-09-27T14:36:04.290Z,8.82
2023-09-27T14:38:35.367Z,12.38
2023-09-27T14:41:08.433Z,7.50
2023-09-27T14:43:36.564Z,9.43
2023-09-27T14:46:03.388Z,21.48
2023-09-27T14:48:33.037Z,12.70
2023-09-27T14:50:59.838Z,13.85
2023-09-27T14:53:26.863Z,13.07
2023-09-27T14:55:53.695Z,9.75
2023-09-27T14:58:21.816Z,7.78
2023-09-27T15:00:48.987Z,8.18
2023-09-27T15:03:15.964Z,7.97
2023-09-27T15:05:42.883Z,9.00
2023-09-27T15:08:09.794Z,8.80
2023-09-27T15:10:36.666Z,8.32
2023-09-27T15:13:06.301Z,9.85
2023-09-27T15:15:33.189Z,9.23
2023-09-27T15:17:59.967Z,14.15
2023-09-27T15:20:26.652Z,11.15
2023-09-27T15:22:53.980Z,14.35
2023-09-27T15:25:21.942Z,10.15
2023-09-27T15:27:49.104Z,19.15
2023-09-27T15:30:19.014Z,16.08
2023-09-27T15:32:45.726Z,14.15
2023-09-27T15:35:13.468Z,12.05
2023-09-27T15:37:51.413Z,9.98
2023-09-27T15:40:18.284Z,8.40
2023-09-27T15:42:44.961Z,10.65
2023-09-27T15:45:11.843Z,9.02
2023-09-27T15:47:38.669Z,13.43
2023-09-27T15:50:06.190Z,11.68
2023-09-27T15:52:35.266Z,10.07
2023-09-27T15:55:06.203Z,13.10
2023-09-27T15:57:32.959Z,11.50
2023-09-27T15:59:59.828Z,10.45
2023-09-27T16:02:26.593Z,9.38
2023-09-27T16:04:54.966Z,10.32
2023-09-27T16:07:23.445Z,11.60
2023-09-27T16:09:50.245Z,11.40
2023-09-27T16:12:17.519Z,11.10
2023-09-27T16:14:44.305Z,15.10
2023-09-27T16:17:11.138Z,9.40
2023-09-27T16:19:38.248Z,9.98
2023-09-27T16:22:05.142Z,8.35
2023-09-27T16:24:32.001Z,7.25
2023-09-27T16:27:00.782Z,10.85
2023-09-27T16:29:27.461Z,8.30
2023-09-27T16:31:54.768Z,11.00
2023-09-27T16:34:21.835Z,7.53
2023-09-27T16:36:50.851Z,9.73
2023-09-27T16:39:17.784Z,13.32
2023-09-27T16:41:44.594Z,10.77
2023-09-27T16:44:11.441Z,7.68
2023-09-27T16:46:38.100Z,7.90
2023-09-27T16:49:05.246Z,8.93
2023-09-27T16:51:32.098Z,12.10
2023-09-27T16:53:58.963Z,10.55
2023-09-27T16:56:25.927Z,9.27
2023-09-27T16:58:52.705Z,8.38
2023-09-27T17:01:22.034Z,8.45
2023-09-27T17:03:49.700Z,12.75
2023-09-27T17:06:20.192Z,8.60
2023-09-27T17:08:48.461Z,8.60
2023-09-27T17:11:23.586Z,7.07
2023-09-27T17:13:51.386Z,7.05
2023-09-27T17:16:27.711Z,7.32
2023-09-27T17:18:55.056Z,8.55
2023-09-27T17:21:22.159Z,11.60
2023-09-27T17:23:50.063Z,9.55
2023-09-27T17:26:17.772Z,9.27
2023-09-27T17:28:44.613Z,11.20
2023-09-27T17:31:11.495Z,11.18
2023-09-27T17:33:38.675Z,7.13
2023-09-27T17:36:06.413Z,9.05
2023-09-27T17:38:33.251Z,10.43
2023-09-27T17:41:00.017Z,10.82
2023-09-27T17:43:26.903Z,11.40
2023-09-27T17:45:54.480Z,7.07
2023-09-27T17:48:22.211Z,6.40
2023-09-27T17:50:49.660Z,12.80
2023-09-27T17:53:19.209Z,9.27
2023-09-27T17:55:46.199Z,13.23
2023-09-27T17:58:13.073Z,7.18
2023-09-27T18:00:39.906Z,9.40
2023-09-27T18:03:07.067Z,9.27
2023-09-27T18:05:34.317Z,7.57
2023-09-27T18:08:01.251Z,8.00
2023-09-27T18:10:30.307Z,8.32
2023-09-27T18:12:57.451Z,6.63
2023-09-27T18:15:28.298Z,11.15
2023-09-27T18:17:56.104Z,12.15
2023-09-27T18:20:23.093Z,8.60
2023-09-27T18:22:49.946Z,7.47
2023-09-27T18:25:18.147Z,7.40
2023-09-27T18:27:45.050Z,7.97
2023-09-27T18:30:12.421Z,6.47
2023-09-27T18:32:39.258Z,8.27
2023-09-27T18:35:06.599Z,9.27
2023-09-27T18:37:34.151Z,11.13
2023-09-27T18:40:06.442Z,10.68
2023-09-27T18:42:33.411Z,9.45
2023-09-27T18:45:00.027Z,7.70
2023-09-27T18:47:26.989Z,7.47
2023-09-27T18:49:54.183Z,12.95
2023-09-27T18:52:21.039Z,7.90
2023-09-27T18:54:49.052Z,8.68
2023-09-27T18:57:15.824Z,8.77
2023-09-27T18:59:42.505Z,7.05
2023-09-27T19:02:09.245Z,7.47
2023-09-27T19:04:36.108Z,8.48
2023-09-27T19:07:02.908Z,7.65
2023-09-27T19:09:29.737Z,12.20
2023-09-27T19:11:56.905Z,8.90
2023-09-27T19:14:23.676Z,8.00
2023-09-27T19:16:51.000Z,8.15
2023-09-27T19:19:17.643Z,6.53
2023-09-27T19:21:44.461Z,8.70
2023-09-27T19:24:11.238Z,9.88
2023-09-27T19:26:39.601Z,10.25
2023-09-27T19:29:06.353Z,8.00
2023-09-27T19:31:33.354Z,6.68
2023-09-27T19:34:01.365Z,5.95
2023-09-27T19:36:28.177Z,7.85
2023-09-27T19:38:55.098Z,8.43
2023-09-27T19:41:22.059Z,7.05
2023-09-27T19:43:49.103Z,8.45
2023-09-27T19:46:20.644Z,6.18
2023-09-27T19:48:47.389Z,9.05
2023-09-27T19:51:27.497Z,8.40
2023-09-27T19:53:55.402Z,6.25
2023-09-27T19:56:22.882Z,10.23
2023-09-27T19:58:49.996Z,7.80
2023-09-27T20:01:32.536Z,12.40
2023-09-27T20:03:59.758Z,11.68
2023-09-27T20:06:26.896Z,8.88
2023-09-27T20:08:53.618Z,9.10
2023-09-27T20:11:20.921Z,7.05
2023-09-27T20:13:48.351Z,11.52
2023-09-27T20:16:15.919Z,12.07
2023-09-27T20:18:42.558Z,10.68
2023-09-27T20:21:09.294Z,10.50
2023-09-27T20:23:36.086Z,11.25
2023-09-27T20:26:03.294Z,12.40
2023-09-27T20:28:30.260Z,9.20
2023-09-27T20:30:57.072Z,10.95
2023-09-27T20:33:24.012Z,7.28
2023-09-27T20:35:50.935Z,15.55
2023-09-27T20:38:17.844Z,8.05
2023-09-27T20:40:44.760Z,12.65
2023-09-27T20:43:11.506Z,8.75
2023-09-27T20:45:38.521Z,9.23
2023-09-27T20:48:05.674Z,8.88
2023-09-27T20:50:32.637Z,11.43
2023-09-27T20:52:59.420Z,12.13
2023-09-27T20:55:26.285Z,8.90
2023-09-27T20:57:53.122Z,13.07
2023-09-27T21:00:23.808Z,11.98
2023-09-27T21:02:50.670Z,11.13
2023-09-27T21:05:17.601Z,10.57
2023-09-27T21:07:44.509Z,8.38
2023-09-27T21:10:11.432Z,9.80
2023-09-27T21:12:38.162Z,11.10
2023-09-27T21:15:05.542Z,9.02
2023-09-27T21:17:32.353Z,8.88
2023-09-27T21:19:59.267Z,8.80
2023-09-27T21:22:26.132Z,11.02
2023-09-27T21:24:53.035Z,8.68
2023-09-27T21:27:19.917Z,7.53
2023-09-27T21:29:47.052Z,10.50
2023-09-27T21:32:14.403Z,8.15
2023-09-27T21:34:41.933Z,9.45
2023-09-27T21:37:08.810Z,11.25
2023-09-27T21:39:36.693Z,7.25
2023-09-27T21:42:03.605Z,8.45
2023-09-27T21:44:34.477Z,12.25
2023-09-27T21:47:01.168Z,9.80
2023-09-27T21:49:28.055Z,11.98
2023-09-27T21:51:59.543Z,10.05
2023-09-27T21:54:30.062Z,9.52
2023-09-27T21:56:56.922Z,12.90
2023-09-27T21:59:23.762Z,8.27
2023-09-27T22:01:50.608Z,9.10
2023-09-27T22:04:17.706Z,10.68
2023-09-27T22:06:46.517Z,10.38
2023-09-27T22:09:13.560Z,14.70
2023-09-27T22:11:40.650Z,10.27
2023-09-27T22:14:08.000Z,9.27
2023-09-27T22:16:35.162Z,11.60
2023-09-27T22:19:02.422Z,10.85
2023-09-27T22:21:31.474Z,10.20
2023-09-27T22:24:12.554Z,15.02
2023-09-27T22:26:40.468Z,10.52
2023-09-27T22:29:10.711Z,9.77
2023-09-27T22:31:41.199Z,11.65
2023-09-27T22:34:26.098Z,9.68
2023-09-27T22:36:53.609Z,12.95
2023-09-27T22:39:20.909Z,13.10
2023-09-27T22:41:49.723Z,18.67
2023-09-27T22:44:23.814Z,11.05
2023-09-27T22:46:52.737Z,17.77
2023-09-27T22:49:21.049Z,12.02
2023-09-27T22:51:48.209Z,15.50
2023-09-27T22:54:16.065Z,12.32
2023-09-27T22:56:47.128Z,15.43
2023-09-27T22:59:14.806Z,12.50
2023-09-27T23:01:43.852Z,16.15
2023-09-27T23:04:16.011Z,17.42
2023-09-27T23:07:01.827Z,15.18
2023-09-27T23:09:35.571Z,14.90
2023-09-27T23:12:20.500Z,13.02
2023-09-27T23:15:06.902Z,12.15
2023-09-27T23:17:56.551Z,12.80
2023-09-27T23:20:30.062Z,16.88
2023-09-27T23:22:58.908Z,10.07
2023-09-27T23:25:44.547Z,14.90
2023-09-27T23:28:18.790Z,17.15
2023-09-27T23:30:51.421Z,14.20
2023-09-27T23:33:18.560Z,15.45
2023-09-27T23:35:45.710Z,11.90
2023-09-27T23:38:31.146Z,14.18
2023-09-27T23:41:01.949Z,16.33
2023-09-27T23:43:43.987Z,10.93
2023-09-27T23:46:24.631Z,13.75
2023-09-27T23:48:54.358Z,15.52
2023-09-27T23:51:21.556Z,14.50
2023-09-27T23:53:48.447Z,12.88
2023-09-27T23:56:16.862Z,15.65
2023-09-27T23:58:44.851Z,18.83
